sensor_id;sensor_type;location;lat;lon;timestamp;temperature;humidity
67547;HTU21D;54381;53.516;49.424;2022-09-01T00:01:36;23.73;55.42
67547;HTU21D;54381;53.516;49.424;2022-09-01T00:04:05;24.09;54.32
67547;HTU21D;54381;53.516;49.424;2022-09-01T00:06:33;24.43;53.49
67547;HTU21D;54381;53.516;49.424;2022-09-01T00:09:03;24.10;54.75
67547;HTU21D;54381;53.516;49.424;2022-09-01T00:11:30;24.10;54.87
67547;HTU21D;54381;53.516;49.424;2022-09-01T00:13:58;24.15;54.80
67547;HTU21D;54381;53.516;49.424;2022-09-01T00:16:27;23.96;55.20
67547;HTU21D;54381;53.516;49.424;2022-09-01T00:18:54;23.94;55.21
67547;HTU21D;54381;53.516;49.424;2022-09-01T00:21:25;24.11;55.01
67547;HTU21D;54381;53.516;49.424;2022-09-01T00:23:52;23.96;55.28
67547;HTU21D;54381;53.516;49.424;2022-09-01T00:26:18;23.92;55.37
67547;HTU21D;54381;53.516;49.424;2022-09-01T00:28:45;23.82;55.57
67547;HTU21D;54381;53.516;49.424;2022-09-01T00:31:11;24.05;54.91
67547;HTU21D;54381;53.516;49.424;2022-09-01T00:33:40;24.01;54.97
67547;HTU21D;54381;53.516;49.424;2022-09-01T00:36:06;23.76;55.90
67547;HTU21D;54381;53.516;49.424;2022-09-01T00:38:33;23.94;55.56
67547;HTU21D;54381;53.516;49.424;2022-09-01T00:41:00;23.77;56.82
67547;HTU21D;54381;53.516;49.424;2022-09-01T00:44:07;23.46;57.37
67547;HTU21D;54381;53.516;49.424;2022-09-01T00:46:41;23.41;58.50
67547;HTU21D;54381;53.516;49.424;2022-09-01T00:49:11;23.40;58.69
67547;HTU21D;54381;53.516;49.424;2022-09-01T00:51:40;23.37;58.16
67547;HTU21D;54381;53.516;49.424;2022-09-01T00:54:11;23.31;58.93
67547;HTU21D;54381;53.516;49.424;2022-09-01T00:56:39;23.34;59.02
67547;HTU21D;54381;53.516;49.424;2022-09-01T00:59:07;23.62;58.10
67547;HTU21D;54381;53.516;49.424;2022-09-01T01:01:34;23.84;57.50
67547;HTU21D;54381;53.516;49.424;2022-09-01T01:04:03;23.75;58.03
67547;HTU21D;54381;53.516;49.424;2022-09-01T01:06:30;23.95;57.22
67547;HTU21D;54381;53.516;49.424;2022-09-01T01:08:58;23.77;58.14
67547;HTU21D;54381;53.516;49.424;2022-09-01T01:11:28;23.57;58.45
67547;HTU21D;54381;53.516;49.424;2022-09-01T01:13:59;23.75;58.13
67547;HTU21D;54381;53.516;49.424;2022-09-01T01:16:30;23.83;58.13
67547;HTU21D;54381;53.516;49.424;2022-09-01T01:18:57;23.71;58.70
67547;HTU21D;54381;53.516;49.424;2022-09-01T01:21:33;23.44;59.49
67547;HTU21D;54381;53.516;49.424;2022-09-01T01:24:23;23.18;60.06
67547;HTU21D;54381;53.516;49.424;2022-09-01T01:26:49;23.29;59.96
67547;HTU21D;54381;53.516;49.424;2022-09-01T01:29:16;23.16;60.48
67547;HTU21D;54381;53.516;49.424;2022-09-01T01:31:42;23.23;60.18
67547;HTU21D;54381;53.516;49.424;2022-09-01T01:34:08;23.40;59.70
67547;HTU21D;54381;53.516;49.424;2022-09-01T01:36:37;23.45;59.37
67547;HTU21D;54381;53.516;49.424;2022-09-01T01:39:11;23.10;60.58
67547;HTU21D;54381;53.516;49.424;2022-09-01T01:41:39;22.94;61.12
67547;HTU21D;54381;53.516;49.424;2022-09-01T01:44:08;22.61;62.19
67547;HTU21D;54381;53.516;49.424;2022-09-01T01:46:41;22.71;61.82
67547;HTU21D;54381;53.516;49.424;2022-09-01T01:49:09;22.90;61.26
67547;HTU21D;54381;53.516;49.424;2022-09-01T01:51:36;22.99;60.85
67547;HTU21D;54381;53.516;49.424;2022-09-01T01:54:02;23.17;60.25
67547;HTU21D;54381;53.516;49.424;2022-09-01T01:56:31;23.31;59.77
67547;HTU21D;54381;53.516;49.424;2022-09-01T01:58:58;23.18;60.05
67547;HTU21D;54381;53.516;49.424;2022-09-01T02:01:28;23.08;60.48
67547;HTU21D;54381;53.516;49.424;2022-09-01T02:03:55;22.98;60.76
67547;HTU21D;54381;53.516;49.424;2022-09-01T02:06:24;22.67;61.74
67547;HTU21D;54381;53.516;49.424;2022-09-01T02:08:52;22.55;62.38
67547;HTU21D;54381;53.516;49.424;2022-09-01T02:11:21;22.40;62.59
67547;HTU21D;54381;53.516;49.424;2022-09-01T02:13:47;22.48;62.43
67547;HTU21D;54381;53.516;49.424;2022-09-01T02:16:14;22.61;61.85
67547;HTU21D;54381;53.516;49.424;2022-09-01T02:18:43;22.92;60.86
67547;HTU21D;54381;53.516;49.424;2022-09-01T02:21:14;22.75;61.69
67547;HTU21D;54381;53.516;49.424;2022-09-01T02:23:46;22.71;61.74
67547;HTU21D;54381;53.516;49.424;2022-09-01T02:26:13;22.85;61.39
67547;HTU21D;54381;53.516;49.424;2022-09-01T02:28:42;22.87;61.29
67547;HTU21D;54381;53.516;49.424;2022-09-01T02:31:10;22.75;61.82
67547;HTU21D;54381;53.516;49.424;2022-09-01T02:33:38;22.78;61.79
67547;HTU21D;54381;53.516;49.424;2022-09-01T02:36:08;23.01;60.73
67547;HTU21D;54381;53.516;49.424;2022-09-01T02:38:38;22.80;61.80
67547;HTU21D;54381;53.516;49.424;2022-09-01T02:41:04;22.68;62.02
67547;HTU21D;54381;53.516;49.424;2022-09-01T02:43:31;22.66;62.21
67547;HTU21D;54381;53.516;49.424;2022-09-01T02:46:00;22.73;62.02
67547;HTU21D;54381;53.516;49.424;2022-09-01T02:48:33;22.94;61.28
67547;HTU21D;54381;53.516;49.424;2022-09-01T02:51:04;22.96;61.55
67547;HTU21D;54381;53.516;49.424;2022-09-01T02:53:32;23.10;60.92
67547;HTU21D;54381;53.516;49.424;2022-09-01T02:56:03;23.01;61.10
67547;HTU21D;54381;53.516;49.424;2022-09-01T02:58:34;22.70;62.52
67547;HTU21D;54381;53.516;49.424;2022-09-01T03:01:31;22.65;62.86
67547;HTU21D;54381;53.516;49.424;2022-09-01T03:04:01;22.76;62.60
67547;HTU21D;54381;53.516;49.424;2022-09-01T03:06:28;22.82;62.67
67547;HTU21D;54381;53.516;49.424;2022-09-01T03:08:57;23.15;61.34
67547;HTU21D;54381;53.516;49.424;2022-09-01T03:11:28;23.66;59.50
67547;HTU21D;54381;53.516;49.424;2022-09-01T03:13:55;24.02;58.30
67547;HTU21D;54381;53.516;49.424;2022-09-01T03:16:21;24.60;56.48
67547;HTU21D;54381;53.516;49.424;2022-09-01T03:18:48;25.07;54.53
67547;HTU21D;54381;53.516;49.424;2022-09-01T03:21:15;25.07;54.65
67547;HTU21D;54381;53.516;49.424;2022-09-01T03:23:43;25.56;53.08
67547;HTU21D;54381;53.516;49.424;2022-09-01T03:26:10;26.85;48.83
67547;HTU21D;54381;53.516;49.424;2022-09-01T03:28:37;26.84;48.87
67547;HTU21D;54381;53.516;49.424;2022-09-01T03:31:04;26.09;50.89
67547;HTU21D;54381;53.516;49.424;2022-09-01T03:33:30;25.81;51.88
67547;HTU21D;54381;53.516;49.424;2022-09-01T03:35:57;25.44;53.23
67547;HTU21D;54381;53.516;49.424;2022-09-01T03:38:24;25.48;53.14
67547;HTU21D;54381;53.516;49.424;2022-09-01T03:40:54;25.32;53.27
67547;HTU21D;54381;53.516;49.424;2022-09-01T03:43:24;25.15;54.00
67547;HTU21D;54381;53.516;49.424;2022-09-01T03:45:54;24.94;54.45
67547;HTU21D;54381;53.516;49.424;2022-09-01T03:48:22;24.91;54.68
67547;HTU21D;54381;53.516;49.424;2022-09-01T03:50:51;24.99;54.39
67547;HTU21D;54381;53.516;49.424;2022-09-01T03:53:19;24.70;54.71
67547;HTU21D;54381;53.516;49.424;2022-09-01T03:55:48;24.40;56.01
67547;HTU21D;54381;53.516;49.424;2022-09-01T03:58:16;24.41;55.81
67547;HTU21D;54381;53.516;49.424;2022-09-01T04:00:54;24.87;54.60
67547;HTU21D;54381;53.516;49.424;2022-09-01T04:03:23;25.43;53.17
67547;HTU21D;54381;53.516;49.424;2022-09-01T04:05:50;25.74;51.79
67547;HTU21D;54381;53.516;49.424;2022-09-01T04:08:18;25.62;52.70
67547;HTU21D;54381;53.516;49.424;2022-09-01T04:10:49;26.25;51.17
67547;HTU21D;54381;53.516;49.424;2022-09-01T04:13:21;26.67;49.95
67547;HTU21D;54381;53.516;49.424;2022-09-01T04:15:47;26.66;50.07
67547;HTU21D;54381;53.516;49.424;2022-09-01T04:18:14;27.35;47.46
67547;HTU21D;54381;53.516;49.424;2022-09-01T04:20:56;27.11;48.08
67547;HTU21D;54381;53.516;49.424;2022-09-01T04:26:02;28.10;45.16
67547;HTU21D;54381;53.516;49.424;2022-09-01T04:28:37;28.74;43.61
67547;HTU21D;54381;53.516;49.424;2022-09-01T04:31:06;27.83;45.77
67547;HTU21D;54381;53.516;49.424;2022-09-01T04:33:36;27.31;46.62
67547;HTU21D;54381;53.516;49.424;2022-09-01T04:36:13;26.79;47.22
67547;HTU21D;54381;53.516;49.424;2022-09-01T04:38:40;26.39;49.37
67547;HTU21D;54381;53.516;49.424;2022-09-01T04:41:06;26.32;49.34
67547;HTU21D;54381;53.516;49.424;2022-09-01T04:43:34;26.55;48.66
67547;HTU21D;54381;53.516;49.424;2022-09-01T04:46:01;26.45;48.65
67547;HTU21D;54381;53.516;49.424;2022-09-01T04:48:28;26.21;49.87
67547;HTU21D;54381;53.516;49.424;2022-09-01T04:50:56;26.40;49.56
67547;HTU21D;54381;53.516;49.424;2022-09-01T04:53:23;26.85;48.27
67547;HTU21D;54381;53.516;49.424;2022-09-01T04:55:49;27.28;47.25
67547;HTU21D;54381;53.516;49.424;2022-09-01T04:58:19;27.59;46.44
67547;HTU21D;54381;53.516;49.424;2022-09-01T05:00:46;27.95;45.09
67547;HTU21D;54381;53.516;49.424;2022-09-01T05:03:14;27.83;45.93
67547;HTU21D;54381;53.516;49.424;2022-09-01T05:05:44;28.83;42.71
67547;HTU21D;54381;53.516;49.424;2022-09-01T05:08:14;31.70;36.46
67547;HTU21D;54381;53.516;49.424;2022-09-01T05:10:44;33.38;32.52
67547;HTU21D;54381;53.516;49.424;2022-09-01T05:13:12;34.39;30.61
67547;HTU21D;54381;53.516;49.424;2022-09-01T05:15:39;34.41;30.12
67547;HTU21D;54381;53.516;49.424;2022-09-01T05:18:16;33.83;31.04
67547;HTU21D;54381;53.516;49.424;2022-09-01T05:20:49;33.77;31.25
67547;HTU21D;54381;53.516;49.424;2022-09-01T05:23:17;34.36;30.06
67547;HTU21D;54381;53.516;49.424;2022-09-01T05:25:49;34.91;29.73
67547;HTU21D;54381;53.516;49.424;2022-09-01T05:28:17;35.67;28.16
67547;HTU21D;54381;53.516;49.424;2022-09-01T05:30:46;36.43;27.31
67547;HTU21D;54381;53.516;49.424;2022-09-01T05:33:14;36.95;26.60
67547;HTU21D;54381;53.516;49.424;2022-09-01T05:35:53;37.25;26.67
67547;HTU21D;54381;53.516;49.424;2022-09-01T05:38:20;37.40;25.79
67547;HTU21D;54381;53.516;49.424;2022-09-01T05:40:59;37.14;26.49
67547;HTU21D;54381;53.516;49.424;2022-09-01T05:43:29;37.48;25.26
67547;HTU21D;54381;53.516;49.424;2022-09-01T05:45:57;36.76;26.97
67547;HTU21D;54381;53.516;49.424;2022-09-01T05:48:23;37.48;25.65
67547;HTU21D;54381;53.516;49.424;2022-09-01T05:50:50;38.39;24.41
67547;HTU21D;54381;53.516;49.424;2022-09-01T05:53:21;38.74;23.48
67547;HTU21D;54381;53.516;49.424;2022-09-01T05:55:51;38.91;23.56
67547;HTU21D;54381;53.516;49.424;2022-09-01T05:58:26;38.21;24.46
67547;HTU21D;54381;53.516;49.424;2022-09-01T06:00:54;37.26;26.30
67547;HTU21D;54381;53.516;49.424;2022-09-01T06:03:23;36.13;28.30
67547;HTU21D;54381;53.516;49.424;2022-09-01T06:05:52;35.81;28.46
67547;HTU21D;54381;53.516;49.424;2022-09-01T06:08:22;36.69;26.53
67547;HTU21D;54381;53.516;49.424;2022-09-01T06:10:51;36.92;24.73
67547;HTU21D;54381;53.516;49.424;2022-09-01T06:13:18;34.75;29.03
67547;HTU21D;54381;53.516;49.424;2022-09-01T06:15:50;32.55;33.09
67547;HTU21D;54381;53.516;49.424;2022-09-01T06:18:20;31.02;36.00
67547;HTU21D;54381;53.516;49.424;2022-09-01T06:20:47;30.00;38.28
67547;HTU21D;54381;53.516;49.424;2022-09-01T06:23:15;29.47;40.07
67547;HTU21D;54381;53.516;49.424;2022-09-01T06:25:46;29.49;39.89
67547;HTU21D;54381;53.516;49.424;2022-09-01T06:28:13;29.93;39.27
67547;HTU21D;54381;53.516;49.424;2022-09-01T06:30:41;30.49;38.30
67547;HTU21D;54381;53.516;49.424;2022-09-01T06:33:08;30.92;37.21
67547;HTU21D;54381;53.516;49.424;2022-09-01T06:35:36;30.80;36.63
67547;HTU21D;54381;53.516;49.424;2022-09-01T06:38:04;30.59;37.08
67547;HTU21D;54381;53.516;49.424;2022-09-01T06:40:32;30.27;38.85
67547;HTU21D;54381;53.516;49.424;2022-09-01T06:43:00;30.33;39.00
67547;HTU21D;54381;53.516;49.424;2022-09-01T06:45:33;29.72;39.40
67547;HTU21D;54381;53.516;49.424;2022-09-01T06:48:00;29.09;41.09
67547;HTU21D;54381;53.516;49.424;2022-09-01T06:50:26;29.04;41.83
67547;HTU21D;54381;53.516;49.424;2022-09-01T06:52:52;29.02;42.21
67547;HTU21D;54381;53.516;49.424;2022-09-01T06:55:26;28.63;42.78
67547;HTU21D;54381;53.516;49.424;2022-09-01T06:57:58;28.28;42.96
67547;HTU21D;54381;53.516;49.424;2022-09-01T07:00:24;27.90;43.93
67547;HTU21D;54381;53.516;49.424;2022-09-01T07:02:53;27.74;44.09
67547;HTU21D;54381;53.516;49.424;2022-09-01T07:05:20;28.15;42.99
67547;HTU21D;54381;53.516;49.424;2022-09-01T07:07:47;28.37;43.03
67547;HTU21D;54381;53.516;49.424;2022-09-01T07:10:17;28.98;41.78
67547;HTU21D;54381;53.516;49.424;2022-09-01T07:12:51;29.01;42.10
67547;HTU21D;54381;53.516;49.424;2022-09-01T07:15:18;28.65;42.49
67547;HTU21D;54381;53.516;49.424;2022-09-01T07:17:49;28.32;43.90
67547;HTU21D;54381;53.516;49.424;2022-09-01T07:20:18;28.18;43.90
67547;HTU21D;54381;53.516;49.424;2022-09-01T07:22:47;28.03;44.69
67547;HTU21D;54381;53.516;49.424;2022-09-01T07:25:14;28.58;44.04
67547;HTU21D;54381;53.516;49.424;2022-09-01T07:27:41;29.14;42.60
67547;HTU21D;54381;53.516;49.424;2022-09-01T07:30:14;29.17;42.80
67547;HTU21D;54381;53.516;49.424;2022-09-01T07:32:41;29.27;43.04
67547;HTU21D;54381;53.516;49.424;2022-09-01T07:35:14;29.56;41.97
67547;HTU21D;54381;53.516;49.424;2022-09-01T07:37:41;29.93;41.32
67547;HTU21D;54381;53.516;49.424;2022-09-01T07:40:10;30.16;40.88
67547;HTU21D;54381;53.516;49.424;2022-09-01T07:42:37;30.18;41.03
67547;HTU21D;54381;53.516;49.424;2022-09-01T07:45:06;30.36;40.00
67547;HTU21D;54381;53.516;49.424;2022-09-01T07:47:36;30.11;40.46
67547;HTU21D;54381;53.516;49.424;2022-09-01T07:50:04;29.85;41.02
67547;HTU21D;54381;53.516;49.424;2022-09-01T07:52:37;30.23;40.11
67547;HTU21D;54381;53.516;49.424;2022-09-01T07:55:12;30.40;39.10
67547;HTU21D;54381;53.516;49.424;2022-09-01T07:57:40;30.55;38.40
67547;HTU21D;54381;53.516;49.424;2022-09-01T08:00:12;30.75;37.94
67547;HTU21D;54381;53.516;49.424;2022-09-01T08:02:41;30.11;37.57
67547;HTU21D;54381;53.516;49.424;2022-09-01T08:05:12;29.16;41.19
67547;HTU21D;54381;53.516;49.424;2022-09-01T08:07:39;28.94;40.92
67547;HTU21D;54381;53.516;49.424;2022-09-01T08:10:06;28.93;40.74
67547;HTU21D;54381;53.516;49.424;2022-09-01T08:12:34;29.37;40.41
67547;HTU21D;54381;53.516;49.424;2022-09-01T08:15:01;29.52;40.36
67547;HTU21D;54381;53.516;49.424;2022-09-01T08:17:27;29.82;39.67
67547;HTU21D;54381;53.516;49.424;2022-09-01T08:19:54;30.24;39.44
67547;HTU21D;54381;53.516;49.424;2022-09-01T08:22:20;30.30;39.29
67547;HTU21D;54381;53.516;49.424;2022-09-01T08:24:51;30.18;39.39
67547;HTU21D;54381;53.516;49.424;2022-09-01T08:27:18;30.27;40.66
67547;HTU21D;54381;53.516;49.424;2022-09-01T08:29:44;30.17;39.10
67547;HTU21D;54381;53.516;49.424;2022-09-01T08:32:10;29.91;38.68
67547;HTU21D;54381;53.516;49.424;2022-09-01T08:34:36;30.01;39.49
67547;HTU21D;54381;53.516;49.424;2022-09-01T08:37:04;29.91;39.43
67547;HTU21D;54381;53.516;49.424;2022-09-01T08:39:31;29.65;40.46
67547;HTU21D;54381;53.516;49.424;2022-09-01T08:42:15;29.58;41.55
67547;HTU21D;54381;53.516;49.424;2022-09-01T08:44:58;29.46;39.55
67547;HTU21D;54381;53.516;49.424;2022-09-01T08:47:27;29.47;39.36
67547;HTU21D;54381;53.516;49.424;2022-09-01T08:49:54;29.32;39.95
67547;HTU21D;54381;53.516;49.424;2022-09-01T08:52:36;29.05;39.84
67547;HTU21D;54381;53.516;49.424;2022-09-01T08:57:59;28.69;40.55
67547;HTU21D;54381;53.516;49.424;2022-09-01T09:00:28;28.79;42.16
67547;HTU21D;54381;53.516;49.424;2022-09-01T09:03:19;28.92;40.61
67547;HTU21D;54381;53.516;49.424;2022-09-01T09:09:00;28.79;39.78
67547;HTU21D;54381;53.516;49.424;2022-09-01T09:15:13;28.38;42.04
67547;HTU21D;54381;53.516;49.424;2022-09-01T09:17:20;28.41;41.71
67547;HTU21D;54381;53.516;49.424;2022-09-01T09:19:47;28.41;42.19
67547;HTU21D;54381;53.516;49.424;2022-09-01T09:22:17;28.40;42.41
67547;HTU21D;54381;53.516;49.424;2022-09-01T09:27:31;28.11;43.57
67547;HTU21D;54381;53.516;49.424;2022-09-01T09:30:00;28.09;43.30
67547;HTU21D;54381;53.516;49.424;2022-09-01T09:35:35;27.70;43.05
67547;HTU21D;54381;53.516;49.424;2022-09-01T09:43:37;27.04;45.21
67547;HTU21D;54381;53.516;49.424;2022-09-01T09:46:36;26.93;46.14
67547;HTU21D;54381;53.516;49.424;2022-09-01T09:49:25;26.73;46.32
67547;HTU21D;54381;53.516;49.424;2022-09-01T09:51:55;26.79;46.93
67547;HTU21D;54381;53.516;49.424;2022-09-01T09:54:28;26.83;47.62
67547;HTU21D;54381;53.516;49.424;2022-09-01T09:57:12;27.00;46.83
67547;HTU21D;54381;53.516;49.424;2022-09-01T10:02:34;27.26;46.67
67547;HTU21D;54381;53.516;49.424;2022-09-01T10:05:22;27.44;45.53
67547;HTU21D;54381;53.516;49.424;2022-09-01T10:07:50;27.43;46.39
67547;HTU21D;54381;53.516;49.424;2022-09-01T10:10:41;27.31;45.30
67547;HTU21D;54381;53.516;49.424;2022-09-01T10:13:19;27.17;46.66
67547;HTU21D;54381;53.516;49.424;2022-09-01T10:15:51;27.20;46.18
67547;HTU21D;54381;53.516;49.424;2022-09-01T10:18:21;27.16;46.58
67547;HTU21D;54381;53.516;49.424;2022-09-01T10:21:03;27.15;47.36
67547;HTU21D;54381;53.516;49.424;2022-09-01T10:23:33;27.11;47.20
67547;HTU21D;54381;53.516;49.424;2022-09-01T10:26:12;27.08;46.44
67547;HTU21D;54381;53.516;49.424;2022-09-01T10:31:39;26.94;47.10
67547;HTU21D;54381;53.516;49.424;2022-09-01T10:34:06;26.85;46.88
67547;HTU21D;54381;53.516;49.424;2022-09-01T10:36:36;26.71;46.73
67547;HTU21D;54381;53.516;49.424;2022-09-01T10:39:03;26.69;47.23
67547;HTU21D;54381;53.516;49.424;2022-09-01T10:44:33;26.39;47.18
67547;HTU21D;54381;53.516;49.424;2022-09-01T10:47:03;26.23;47.48
67547;HTU21D;54381;53.516;49.424;2022-09-01T10:52:00;26.22;48.64
67547;HTU21D;54381;53.516;49.424;2022-09-01T10:57:31;26.12;48.12
67547;HTU21D;54381;53.516;49.424;2022-09-01T11:08:39;25.81;50.47
67547;HTU21D;54381;53.516;49.424;2022-09-01T11:11:38;25.72;50.25
67547;HTU21D;54381;53.516;49.424;2022-09-01T11:14:22;25.57;52.62
67547;HTU21D;54381;53.516;49.424;2022-09-01T11:20:25;25.62;51.79
67547;HTU21D;54381;53.516;49.424;2022-09-01T11:36:32;27.16;47.43
67547;HTU21D;54381;53.516;49.424;2022-09-01T11:39:29;27.29;48.12
67547;HTU21D;54381;53.516;49.424;2022-09-01T11:42:05;27.32;47.07
67547;HTU21D;54381;53.516;49.424;2022-09-01T11:44:55;27.32;45.05
67547;HTU21D;54381;53.516;49.424;2022-09-01T11:47:45;27.35;45.18
67547;HTU21D;54381;53.516;49.424;2022-09-01T11:52:41;27.23;43.72
67547;HTU21D;54381;53.516;49.424;2022-09-01T11:55:09;27.15;44.02
67547;HTU21D;54381;53.516;49.424;2022-09-01T11:57:39;27.12;43.56
67547;HTU21D;54381;53.516;49.424;2022-09-01T12:00:10;27.00;44.08
67547;HTU21D;54381;53.516;49.424;2022-09-01T12:02:45;27.01;45.63
67547;HTU21D;54381;53.516;49.424;2022-09-01T12:05:33;27.04;43.70
67547;HTU21D;54381;53.516;49.424;2022-09-01T12:08:05;27.06;44.54
67547;HTU21D;54381;53.516;49.424;2022-09-01T12:10:39;27.22;44.80
67547;HTU21D;54381;53.516;49.424;2022-09-01T12:13:11;27.17;46.18
67547;HTU21D;54381;53.516;49.424;2022-09-01T12:15:40;27.19;48.05
67547;HTU21D;54381;53.516;49.424;2022-09-01T12:18:11;27.28;45.79
67547;HTU21D;54381;53.516;49.424;2022-09-01T12:20:38;27.30;45.25
67547;HTU21D;54381;53.516;49.424;2022-09-01T12:23:22;27.32;44.06
67547;HTU21D;54381;53.516;49.424;2022-09-01T12:25:50;27.42;45.87
67547;HTU21D;54381;53.516;49.424;2022-09-01T12:28:17;27.45;44.47
67547;HTU21D;54381;53.516;49.424;2022-09-01T12:30:43;27.35;43.90
67547;HTU21D;54381;53.516;49.424;2022-09-01T12:33:11;27.35;43.35
67547;HTU21D;54381;53.516;49.424;2022-09-01T12:35:39;27.13;44.87
67547;HTU21D;54381;53.516;49.424;2022-09-01T12:38:22;27.04;46.08
67547;HTU21D;54381;53.516;49.424;2022-09-01T12:40:51;26.93;46.44
67547;HTU21D;54381;53.516;49.424;2022-09-01T12:43:28;26.50;47.60
67547;HTU21D;54381;53.516;49.424;2022-09-01T12:45:54;26.35;48.31
67547;HTU21D;54381;53.516;49.424;2022-09-01T12:48:36;26.30;48.44
67547;HTU21D;54381;53.516;49.424;2022-09-01T12:51:19;26.53;47.76
67547;HTU21D;54381;53.516;49.424;2022-09-01T12:53:50;26.54;47.82
67547;HTU21D;54381;53.516;49.424;2022-09-01T12:56:34;26.45;48.08
67547;HTU21D;54381;53.516;49.424;2022-09-01T12:59:22;26.49;48.28
67547;HTU21D;54381;53.516;49.424;2022-09-01T13:01:48;26.45;49.01
67547;HTU21D;54381;53.516;49.424;2022-09-01T13:06:50;26.24;49.02
67547;HTU21D;54381;53.516;49.424;2022-09-01T13:09:17;26.18;49.63
67547;HTU21D;54381;53.516;49.424;2022-09-01T13:11:43;26.21;49.67
67547;HTU21D;54381;53.516;49.424;2022-09-01T13:14:13;26.22;49.17
67547;HTU21D;54381;53.516;49.424;2022-09-01T13:16:40;26.12;50.08
67547;HTU21D;54381;53.516;49.424;2022-09-01T13:19:07;26.17;50.18
67547;HTU21D;54381;53.516;49.424;2022-09-01T13:21:34;26.21;50.03
67547;HTU21D;54381;53.516;49.424;2022-09-01T13:24:05;26.13;50.39
67547;HTU21D;54381;53.516;49.424;2022-09-01T13:26:32;26.05;50.74
67547;HTU21D;54381;53.516;49.424;2022-09-01T13:28:59;26.22;50.28
67547;HTU21D;54381;53.516;49.424;2022-09-01T13:31:28;26.25;50.39
67547;HTU21D;54381;53.516;49.424;2022-09-01T13:33:57;26.33;49.86
67547;HTU21D;54381;53.516;49.424;2022-09-01T13:36:23;26.32;49.76
67547;HTU21D;54381;53.516;49.424;2022-09-01T13:38:49;26.22;50.85
67547;HTU21D;54381;53.516;49.424;2022-09-01T13:41:15;26.24;50.90
67547;HTU21D;54381;53.516;49.424;2022-09-01T13:43:43;26.12;51.03
67547;HTU21D;54381;53.516;49.424;2022-09-01T13:46:09;26.11;51.23
67547;HTU21D;54381;53.516;49.424;2022-09-01T13:48:36;26.06;51.11
67547;HTU21D;54381;53.516;49.424;2022-09-01T13:51:02;26.02;52.27
67547;HTU21D;54381;53.516;49.424;2022-09-01T13:53:28;26.17;51.16
67547;HTU21D;54381;53.516;49.424;2022-09-01T13:55:54;26.04;51.41
67547;HTU21D;54381;53.516;49.424;2022-09-01T13:58:20;26.07;50.76
67547;HTU21D;54381;53.516;49.424;2022-09-01T14:00:47;25.95;50.93
67547;HTU21D;54381;53.516;49.424;2022-09-01T14:03:17;25.95;51.32
67547;HTU21D;54381;53.516;49.424;2022-09-01T14:05:45;25.89;51.17
67547;HTU21D;54381;53.516;49.424;2022-09-01T14:08:12;25.89;51.46
67547;HTU21D;54381;53.516;49.424;2022-09-01T14:10:43;26.01;51.73
67547;HTU21D;54381;53.516;49.424;2022-09-01T14:13:11;26.02;51.62
67547;HTU21D;54381;53.516;49.424;2022-09-01T14:15:38;26.12;51.20
67547;HTU21D;54381;53.516;49.424;2022-09-01T14:18:05;26.19;50.37
67547;HTU21D;54381;53.516;49.424;2022-09-01T14:20:34;26.17;52.98
67547;HTU21D;54381;53.516;49.424;2022-09-01T14:23:02;26.07;50.18
67547;HTU21D;54381;53.516;49.424;2022-09-01T14:25:29;25.91;49.65
67547;HTU21D;54381;53.516;49.424;2022-09-01T14:27:56;25.71;50.85
67547;HTU21D;54381;53.516;49.424;2022-09-01T14:30:25;25.60;52.16
67547;HTU21D;54381;53.516;49.424;2022-09-01T14:32:52;25.57;54.95
67547;HTU21D;54381;53.516;49.424;2022-09-01T14:35:20;25.51;51.85
67547;HTU21D;54381;53.516;49.424;2022-09-01T14:37:50;25.42;52.22
67547;HTU21D;54381;53.516;49.424;2022-09-01T14:40:18;25.30;54.14
67547;HTU21D;54381;53.516;49.424;2022-09-01T14:42:46;25.30;52.91
67547;HTU21D;54381;53.516;49.424;2022-09-01T14:45:20;25.30;53.21
67547;HTU21D;54381;53.516;49.424;2022-09-01T14:47:50;25.18;53.87
67547;HTU21D;54381;53.516;49.424;2022-09-01T14:50:16;25.16;54.86
67547;HTU21D;54381;53.516;49.424;2022-09-01T14:52:44;25.08;53.36
67547;HTU21D;54381;53.516;49.424;2022-09-01T14:55:12;25.00;53.39
67547;HTU21D;54381;53.516;49.424;2022-09-01T14:57:38;24.86;54.29
67547;HTU21D;54381;53.516;49.424;2022-09-01T15:00:07;24.79;53.91
67547;HTU21D;54381;53.516;49.424;2022-09-01T15:02:35;24.76;54.09
67547;HTU21D;54381;53.516;49.424;2022-09-01T15:05:02;24.78;54.81
67547;HTU21D;54381;53.516;49.424;2022-09-01T15:07:28;24.70;54.86
67547;HTU21D;54381;53.516;49.424;2022-09-01T15:09:54;24.66;55.52
67547;HTU21D;54381;53.516;49.424;2022-09-01T15:12:24;24.69;54.14
67547;HTU21D;54381;53.516;49.424;2022-09-01T15:14:50;24.56;54.68
67547;HTU21D;54381;53.516;49.424;2022-09-01T15:17:16;24.50;57.19
67547;HTU21D;54381;53.516;49.424;2022-09-01T15:19:42;24.66;58.51
67547;HTU21D;54381;53.516;49.424;2022-09-01T15:22:09;24.77;54.81
67547;HTU21D;54381;53.516;49.424;2022-09-01T15:24:37;24.73;57.07
67547;HTU21D;54381;53.516;49.424;2022-09-01T15:27:03;24.63;57.61
67547;HTU21D;54381;53.516;49.424;2022-09-01T15:29:31;24.51;55.54
67547;HTU21D;54381;53.516;49.424;2022-09-01T15:32:00;24.53;56.93
67547;HTU21D;54381;53.516;49.424;2022-09-01T15:34:26;24.77;57.75
67547;HTU21D;54381;53.516;49.424;2022-09-01T15:36:53;24.76;55.57
67547;HTU21D;54381;53.516;49.424;2022-09-01T15:39:19;24.88;55.62
67547;HTU21D;54381;53.516;49.424;2022-09-01T15:41:46;24.91;55.29
67547;HTU21D;54381;53.516;49.424;2022-09-01T15:44:12;24.92;56.13
67547;HTU21D;54381;53.516;49.424;2022-09-01T15:46:38;24.82;55.46
67547;HTU21D;54381;53.516;49.424;2022-09-01T15:49:08;24.78;58.04
67547;HTU21D;54381;53.516;49.424;2022-09-01T15:51:37;24.77;56.43
67547;HTU21D;54381;53.516;49.424;2022-09-01T15:54:15;24.69;56.19
67547;HTU21D;54381;53.516;49.424;2022-09-01T15:56:42;24.50;57.00
67547;HTU21D;54381;53.516;49.424;2022-09-01T15:59:10;24.58;57.59
67547;HTU21D;54381;53.516;49.424;2022-09-01T16:01:40;24.69;57.70
67547;HTU21D;54381;53.516;49.424;2022-09-01T16:04:08;24.70;56.52
67547;HTU21D;54381;53.516;49.424;2022-09-01T16:06:37;24.44;56.87
67547;HTU21D;54381;53.516;49.424;2022-09-01T16:09:04;24.30;57.83
67547;HTU21D;54381;53.516;49.424;2022-09-01T16:11:34;24.21;58.75
67547;HTU21D;54381;53.516;49.424;2022-09-01T16:14:04;24.25;57.94
67547;HTU21D;54381;53.516;49.424;2022-09-01T16:17:16;24.25;57.84
67547;HTU21D;54381;53.516;49.424;2022-09-01T16:19:52;24.27;57.80
67547;HTU21D;54381;53.516;49.424;2022-09-01T16:22:26;24.18;58.13
67547;HTU21D;54381;53.516;49.424;2022-09-01T16:24:54;24.10;58.64
67547;HTU21D;54381;53.516;49.424;2022-09-01T16:27:33;24.09;58.61
67547;HTU21D;54381;53.516;49.424;2022-09-01T16:30:08;24.23;59.03